sensor_id;sensor_type;location;lat;lon;timestamp;P1;durP1;ratioP1;P2;durP2;ratioP2
42006;SDS011;27696;42.704;23.304;2023-12-04T00:01:45;11.38;;;7.07;;
42006;SDS011;27696;42.704;23.304;2023-12-04T00:04:12;10.20;;;7.30;;
42006;SDS011;27696;42.704;23.304;2023-12-04T00:06:37;13.10;;;8.48;;
42006;SDS011;27696;42.704;23.304;2023-12-04T00:09:03;15.40;;;8.40;;
42006;SDS011;27696;42.704;23.304;2023-12-04T00:11:29;10.27;;;7.72;;
42006;SDS011;27696;42.704;23.304;2023-12-04T00:13:54;12.30;;;8.07;;
42006;SDS011;27696;42.704;23.304;2023-12-04T00:16:19;11.23;;;7.72;;
42006;SDS011;27696;42.704;23.304;2023-12-04T00:18:45;10.40;;;7.75;;
42006;SDS011;27696;42.704;23.304;2023-12-04T00:21:10;11.80;;;8.23;;
42006;SDS011;27696;42.704;23.304;2023-12-04T00:23:38;11.07;;;7.70;;
42006;SDS011;27696;42.704;23.304;2023-12-04T00:26:03;11.30;;;7.57;;
42006;SDS011;27696;42.704;23.304;2023-12-04T00:28:29;10.77;;;7.53;;
42006;SDS011;27696;42.704;23.304;2023-12-04T00:30:55;10.95;;;7.80;;
42006;SDS011;27696;42.704;23.304;2023-12-04T00:33:29;12.70;;;7.78;;
42006;SDS011;27696;42.704;23.304;2023-12-04T00:35:54;13.15;;;8.57;;
42006;SDS011;27696;42.704;23.304;2023-12-04T00:38:20;10.80;;;7.25;;
42006;SDS011;27696;42.704;23.304;2023-12-04T00:40:45;11.68;;;8.40;;
42006;SDS011;27696;42.704;23.304;2023-12-04T00:43:11;12.32;;;7.07;;
42006;SDS011;27696;42.704;23.304;2023-12-04T00:45:36;11.48;;;7.95;;
42006;SDS011;27696;42.704;23.304;2023-12-04T00:48:02;11.07;;;8.30;;
42006;SDS011;27696;42.704;23.304;2023-12-04T00:50:28;10.57;;;6.28;;
42006;SDS011;27696;42.704;23.304;2023-12-04T00:52:53;13.15;;;8.70;;
42006;SDS011;27696;42.704;23.304;2023-12-04T00:55:19;14.05;;;8.50;;
42006;SDS011;27696;42.704;23.304;2023-12-04T00:57:45;12.30;;;8.25;;
42006;SDS011;27696;42.704;23.304;2023-12-04T01:00:10;10.10;;;7.70;;
42006;SDS011;27696;42.704;23.304;2023-12-04T01:02:36;13.48;;;8.90;;
42006;SDS011;27696;42.704;23.304;2023-12-04T01:05:02;13.35;;;8.50;;
42006;SDS011;27696;42.704;23.304;2023-12-04T01:07:27;12.02;;;8.32;;
42006;SDS011;27696;42.704;23.304;2023-12-04T01:09:54;9.98;;;6.43;;
42006;SDS011;27696;42.704;23.304;2023-12-04T01:12:19;12.80;;;8.85;;
42006;SDS011;27696;42.704;23.304;2023-12-04T01:14:46;14.35;;;9.65;;
42006;SDS011;27696;42.704;23.304;2023-12-04T01:17:11;12.63;;;8.57;;
42006;SDS011;27696;42.704;23.304;2023-12-04T01:19:37;14.75;;;8.57;;
42006;SDS011;27696;42.704;23.304;2023-12-04T01:22:02;12.70;;;8.52;;
42006;SDS011;27696;42.704;23.304;2023-12-04T01:24:28;12.48;;;9.25;;
42006;SDS011;27696;42.704;23.304;2023-12-04T01:26:53;10.13;;;6.75;;
42006;SDS011;27696;42.704;23.304;2023-12-04T01:29:19;12.45;;;9.02;;
42006;SDS011;27696;42.704;23.304;2023-12-04T01:31:44;13.52;;;9.68;;
42006;SDS011;27696;42.704;23.304;2023-12-04T01:34:11;12.20;;;8.00;;
42006;SDS011;27696;42.704;23.304;2023-12-04T01:36:39;13.82;;;8.38;;
42006;SDS011;27696;42.704;23.304;2023-12-04T01:39:06;11.20;;;7.88;;
42006;SDS011;27696;42.704;23.304;2023-12-04T01:41:31;12.55;;;8.73;;
42006;SDS011;27696;42.704;23.304;2023-12-04T01:43:56;12.02;;;8.10;;
42006;SDS011;27696;42.704;23.304;2023-12-04T01:46:22;11.15;;;8.05;;
42006;SDS011;27696;42.704;23.304;2023-12-04T01:48:48;12.40;;;8.07;;
42006;SDS011;27696;42.704;23.304;2023-12-04T01:51:14;13.18;;;8.05;;
42006;SDS011;27696;42.704;23.304;2023-12-04T01:53:40;9.50;;;7.07;;
42006;SDS011;27696;42.704;23.304;2023-12-04T01:56:06;11.73;;;8.60;;
42006;SDS011;27696;42.704;23.304;2023-12-04T01:58:32;12.90;;;8.93;;
42006;SDS011;27696;42.704;23.304;2023-12-04T02:00:58;12.27;;;7.88;;
42006;SDS011;27696;42.704;23.304;2023-12-04T02:03:24;13.45;;;8.55;;
42006;SDS011;27696;42.704;23.304;2023-12-04T02:05:51;11.48;;;8.88;;
42006;SDS011;27696;42.704;23.304;2023-12-04T02:08:16;10.88;;;7.97;;
42006;SDS011;27696;42.704;23.304;2023-12-04T02:10:42;10.43;;;7.35;;
42006;SDS011;27696;42.704;23.304;2023-12-04T02:13:08;11.57;;;7.88;;
42006;SDS011;27696;42.704;23.304;2023-12-04T02:15:33;12.15;;;7.90;;
42006;SDS011;27696;42.704;23.304;2023-12-04T02:17:59;10.68;;;8.15;;
42006;SDS011;27696;42.704;23.304;2023-12-04T02:20:31;11.45;;;7.55;;
42006;SDS011;27696;42.704;23.304;2023-12-04T02:22:58;10.52;;;7.43;;
42006;SDS011;27696;42.704;23.304;2023-12-04T02:25:24;9.82;;;7.60;;
42006;SDS011;27696;42.704;23.304;2023-12-04T02:27:50;11.80;;;7.90;;
42006;SDS011;27696;42.704;23.304;2023-12-04T02:30:17;10.27;;;7.75;;
42006;SDS011;27696;42.704;23.304;2023-12-04T02:32:47;11.35;;;7.95;;
42006;SDS011;27696;42.704;23.304;2023-12-04T02:35:14;12.32;;;7.50;;
42006;SDS011;27696;42.704;23.304;2023-12-04T02:37:40;12.18;;;7.43;;
42006;SDS011;27696;42.704;23.304;2023-12-04T02:40:06;10.27;;;7.38;;
42006;SDS011;27696;42.704;23.304;2023-12-04T02:42:32;10.07;;;7.35;;
42006;SDS011;27696;42.704;23.304;2023-12-04T02:44:58;9.35;;;7.45;;
42006;SDS011;27696;42.704;23.304;2023-12-04T02:47:23;10.30;;;7.05;;
42006;SDS011;27696;42.704;23.304;2023-12-04T02:49:49;9.98;;;6.93;;
42006;SDS011;27696;42.704;23.304;2023-12-04T02:52:14;10.48;;;7.55;;
42006;SDS011;27696;42.704;23.304;2023-12-04T02:54:40;11.48;;;6.38;;
42006;SDS011;27696;42.704;23.304;2023-12-04T02:57:05;11.43;;;7.45;;
42006;SDS011;27696;42.704;23.304;2023-12-04T02:59:31;11.25;;;6.70;;
42006;SDS011;27696;42.704;23.304;2023-12-04T03:01:56;11.85;;;7.32;;
42006;SDS011;27696;42.704;23.304;2023-12-04T03:04:22;10.27;;;7.22;;
42006;SDS011;27696;42.704;23.304;2023-12-04T03:06:47;10.65;;;7.18;;
42006;SDS011;27696;42.704;23.304;2023-12-04T03:09:13;10.45;;;7.15;;
42006;SDS011;27696;42.704;23.304;2023-12-04T03:11:41;10.00;;;6.40;;
42006;SDS011;27696;42.704;23.304;2023-12-04T03:14:07;10.50;;;7.25;;
42006;SDS011;27696;42.704;23.304;2023-12-04T03:16:33;9.30;;;6.45;;
42006;SDS011;27696;42.704;23.304;2023-12-04T03:18:58;13.38;;;8.13;;
42006;SDS011;27696;42.704;23.304;2023-12-04T03:21:24;11.57;;;7.22;;
42006;SDS011;27696;42.704;23.304;2023-12-04T03:23:49;9.82;;;6.63;;
42006;SDS011;27696;42.704;23.304;2023-12-04T03:26:15;11.15;;;7.57;;
42006;SDS011;27696;42.704;23.304;2023-12-04T03:28:41;10.80;;;7.45;;
42006;SDS011;27696;42.704;23.304;2023-12-04T03:31:06;12.27;;;7.38;;
42006;SDS011;27696;42.704;23.304;2023-12-04T03:33:32;9.55;;;7.10;;
42006;SDS011;27696;42.704;23.304;2023-12-04T03:35:58;10.18;;;7.07;;
42006;SDS011;27696;42.704;23.304;2023-12-04T03:38:24;10.75;;;7.10;;
42006;SDS011;27696;42.704;23.304;2023-12-04T03:40:50;11.88;;;7.65;;
42006;SDS011;27696;42.704;23.304;2023-12-04T03:43:15;11.60;;;8.18;;
42006;SDS011;27696;42.704;23.304;2023-12-04T03:45:41;8.07;;;5.35;;
42006;SDS011;27696;42.704;23.304;2023-12-04T03:48:06;11.35;;;7.68;;
42006;SDS011;27696;42.704;23.304;2023-12-04T03:50:32;9.98;;;7.00;;
42006;SDS011;27696;42.704;23.304;2023-12-04T03:52:57;10.18;;;7.18;;
42006;SDS011;27696;42.704;23.304;2023-12-04T03:55:23;12.10;;;7.05;;
42006;SDS011;27696;42.704;23.304;2023-12-04T03:57:49;9.93;;;6.93;;
42006;SDS011;27696;42.704;23.304;2023-12-04T04:00:15;11.20;;;6.72;;
42006;SDS011;27696;42.704;23.304;2023-12-04T04:02:42;11.02;;;6.82;;
42006;SDS011;27696;42.704;23.304;2023-12-04T04:05:09;9.90;;;7.68;;
42006;SDS011;27696;42.704;23.304;2023-12-04T04:07:35;9.70;;;7.15;;
42006;SDS011;27696;42.704;23.304;2023-12-04T04:10:01;10.65;;;6.90;;
42006;SDS011;27696;42.704;23.304;2023-12-04T04:12:27;11.63;;;7.28;;
42006;SDS011;27696;42.704;23.304;2023-12-04T04:14:52;13.82;;;8.43;;
42006;SDS011;27696;42.704;23.304;2023-12-04T04:17:18;8.98;;;6.57;;
42006;SDS011;27696;42.704;23.304;2023-12-04T04:19:43;11.25;;;7.28;;
42006;SDS011;27696;42.704;23.304;2023-12-04T04:22:09;10.88;;;6.38;;
42006;SDS011;27696;42.704;23.304;2023-12-04T04:24:35;9.68;;;6.88;;
42006;SDS011;27696;42.704;23.304;2023-12-04T04:27:01;12.13;;;8.13;;
42006;SDS011;27696;42.704;23.304;2023-12-04T04:29:26;10.25;;;6.38;;
42006;SDS011;27696;42.704;23.304;2023-12-04T04:31:52;10.50;;;7.00;;
42006;SDS011;27696;42.704;23.304;2023-12-04T04:34:18;10.98;;;7.75;;
42006;SDS011;27696;42.704;23.304;2023-12-04T04:36:45;11.02;;;7.20;;
42006;SDS011;27696;42.704;23.304;2023-12-04T04:39:11;11.57;;;7.45;;
42006;SDS011;27696;42.704;23.304;2023-12-04T04:41:37;9.40;;;6.93;;
42006;SDS011;27696;42.704;23.304;2023-12-04T04:44:03;10.00;;;6.97;;
42006;SDS011;27696;42.704;23.304;2023-12-04T04:46:28;10.15;;;7.63;;
42006;SDS011;27696;42.704;23.304;2023-12-04T04:48:54;9.35;;;6.45;;
42006;SDS011;27696;42.704;23.304;2023-12-04T04:51:19;8.93;;;6.65;;
42006;SDS011;27696;42.704;23.304;2023-12-04T04:53:45;10.25;;;6.82;;
42006;SDS011;27696;42.704;23.304;2023-12-04T04:56:10;13.05;;;7.43;;
42006;SDS011;27696;42.704;23.304;2023-12-04T04:58:36;10.00;;;7.43;;
42006;SDS011;27696;42.704;23.304;2023-12-04T05:01:01;11.32;;;7.43;;
42006;SDS011;27696;42.704;23.304;2023-12-04T05:03:27;11.00;;;6.85;;
42006;SDS011;27696;42.704;23.304;2023-12-04T05:05:52;11.60;;;7.05;;
42006;SDS011;27696;42.704;23.304;2023-12-04T05:08:18;10.85;;;7.05;;
42006;SDS011;27696;42.704;23.304;2023-12-04T05:10:43;8.30;;;6.32;;
42006;SDS011;27696;42.704;23.304;2023-12-04T05:13:09;10.68;;;7.45;;
42006;SDS011;27696;42.704;23.304;2023-12-04T05:15:34;11.52;;;7.22;;
42006;SDS011;27696;42.704;23.304;2023-12-04T05:18:01;11.95;;;7.45;;
42006;SDS011;27696;42.704;23.304;2023-12-04T05:20:26;14.75;;;6.65;;
42006;SDS011;27696;42.704;23.304;2023-12-04T05:22:52;9.52;;;7.00;;
42006;SDS011;27696;42.704;23.304;2023-12-04T05:25:17;12.57;;;7.80;;
42006;SDS011;27696;42.704;23.304;2023-12-04T05:27:42;10.70;;;7.03;;
42006;SDS011;27696;42.704;23.304;2023-12-04T05:30:08;10.10;;;7.13;;
42006;SDS011;27696;42.704;23.304;2023-12-04T05:32:34;13.88;;;8.05;;
42006;SDS011;27696;42.704;23.304;2023-12-04T05:34:59;10.15;;;6.95;;
42006;SDS011;27696;42.704;23.304;2023-12-04T05:37:25;10.10;;;7.38;;
42006;SDS011;27696;42.704;23.304;2023-12-04T05:39:50;12.27;;;7.68;;
42006;SDS011;27696;42.704;23.304;2023-12-04T05:42:16;11.35;;;7.65;;
42006;SDS011;27696;42.704;23.304;2023-12-04T05:44:41;13.30;;;7.35;;
42006;SDS011;27696;42.704;23.304;2023-12-04T05:47:07;9.52;;;6.78;;
42006;SDS011;27696;42.704;23.304;2023-12-04T05:49:33;11.52;;;7.60;;
42006;SDS011;27696;42.704;23.304;2023-12-04T05:51:59;12.15;;;8.27;;
42006;SDS011;27696;42.704;23.304;2023-12-04T05:54:25;9.38;;;6.65;;
42006;SDS011;27696;42.704;23.304;2023-12-04T05:56:50;11.02;;;7.97;;
42006;SDS011;27696;42.704;23.304;2023-12-04T05:59:16;9.73;;;6.97;;
42006;SDS011;27696;42.704;23.304;2023-12-04T06:01:41;10.50;;;7.63;;
42006;SDS011;27696;42.704;23.304;2023-12-04T06:04:07;11.93;;;8.32;;
42006;SDS011;27696;42.704;23.304;2023-12-04T06:06:32;11.90;;;7.90;;
42006;SDS011;27696;42.704;23.304;2023-12-04T06:08:58;15.85;;;9.05;;
42006;SDS011;27696;42.704;23.304;2023-12-04T06:11:23;8.05;;;6.15;;
42006;SDS011;27696;42.704;23.304;2023-12-04T06:13:48;11.40;;;7.65;;
42006;SDS011;27696;42.704;23.304;2023-12-04T06:16:14;11.85;;;7.88;;
42006;SDS011;27696;42.704;23.304;2023-12-04T06:18:39;11.45;;;8.20;;
42006;SDS011;27696;42.704;23.304;2023-12-04T06:21:05;10.10;;;7.43;;
42006;SDS011;27696;42.704;23.304;2023-12-04T06:23:31;10.82;;;7.82;;
42006;SDS011;27696;42.704;23.304;2023-12-04T06:25:57;11.38;;;8.63;;
42006;SDS011;27696;42.704;23.304;2023-12-04T06:28:23;12.05;;;8.27;;
42006;SDS011;27696;42.704;23.304;2023-12-04T06:30:48;13.93;;;8.63;;
42006;SDS011;27696;42.704;23.304;2023-12-04T06:33:16;11.55;;;7.95;;
42006;SDS011;27696;42.704;23.304;2023-12-04T06:35:43;13.65;;;8.73;;
42006;SDS011;27696;42.704;23.304;2023-12-04T06:38:09;11.73;;;8.45;;
42006;SDS011;27696;42.704;23.304;2023-12-04T06:40:36;11.27;;;7.40;;
42006;SDS011;27696;42.704;23.304;2023-12-04T06:43:02;8.77;;;6.15;;
42006;SDS011;27696;42.704;23.304;2023-12-04T06:45:27;13.13;;;7.40;;
42006;SDS011;27696;42.704;23.304;2023-12-04T06:47:53;9.63;;;7.15;;
42006;SDS011;27696;42.704;23.304;2023-12-04T06:50:19;14.02;;;8.00;;
42006;SDS011;27696;42.704;23.304;2023-12-04T06:52:45;11.70;;;7.57;;
42006;SDS011;27696;42.704;23.304;2023-12-04T06:55:11;11.30;;;6.82;;
42006;SDS011;27696;42.704;23.304;2023-12-04T06:57:37;9.98;;;7.13;;
42006;SDS011;27696;42.704;23.304;2023-12-04T07:00:03;10.68;;;6.72;;
42006;SDS011;27696;42.704;23.304;2023-12-04T07:02:29;10.85;;;7.50;;
42006;SDS011;27696;42.704;23.304;2023-12-04T07:04:55;12.38;;;7.07;;
42006;SDS011;27696;42.704;23.304;2023-12-04T07:07:20;11.20;;;7.40;;
42006;SDS011;27696;42.704;23.304;2023-12-04T07:09:46;9.07;;;6.15;;
42006;SDS011;27696;42.704;23.304;2023-12-04T07:12:12;11.25;;;7.63;;
42006;SDS011;27696;42.704;23.304;2023-12-04T07:14:38;12.38;;;8.07;;
42006;SDS011;27696;42.704;23.304;2023-12-04T07:17:03;14.32;;;8.82;;
42006;SDS011;27696;42.704;23.304;2023-12-04T07:19:29;12.18;;;8.52;;
42006;SDS011;27696;42.704;23.304;2023-12-04T07:21:55;12.85;;;8.85;;
42006;SDS011;27696;42.704;23.304;2023-12-04T07:24:21;10.43;;;8.23;;
42006;SDS011;27696;42.704;23.304;2023-12-04T07:26:46;14.98;;;8.90;;
42006;SDS011;27696;42.704;23.304;2023-12-04T07:29:12;12.13;;;8.55;;
42006;SDS011;27696;42.704;23.304;2023-12-04T07:31:37;11.38;;;7.47;;
42006;SDS011;27696;42.704;23.304;2023-12-04T07:34:03;12.00;;;7.85;;
42006;SDS011;27696;42.704;23.304;2023-12-04T07:36:28;10.07;;;7.53;;
42006;SDS011;27696;42.704;23.304;2023-12-04T07:38:54;8.90;;;7.00;;
42006;SDS011;27696;42.704;23.304;2023-12-04T07:41:20;9.50;;;6.82;;
42006;SDS011;27696;42.704;23.304;2023-12-04T07:43:46;12.88;;;8.15;;
42006;SDS011;27696;42.704;23.304;2023-12-04T07:46:11;11.60;;;8.20;;
42006;SDS011;27696;42.704;23.304;2023-12-04T07:48:37;9.23;;;5.75;;
42006;SDS011;27696;42.704;23.304;2023-12-04T07:51:03;11.80;;;7.70;;
42006;SDS011;27696;42.704;23.304;2023-12-04T07:53:28;12.48;;;7.10;;
42006;SDS011;27696;42.704;23.304;2023-12-04T07:55:54;10.05;;;5.93;;
42006;SDS011;27696;42.704;23.304;2023-12-04T07:58:19;10.27;;;5.30;;
42006;SDS011;27696;42.704;23.304;2023-12-04T08:00:45;10.10;;;6.82;;
42006;SDS011;27696;42.704;23.304;2023-12-04T08:03:10;13.00;;;6.53;;
42006;SDS011;27696;42.704;23.304;2023-12-04T08:05:39;7.85;;;5.50;;
42006;SDS011;27696;42.704;23.304;2023-12-04T08:08:04;8.32;;;6.07;;
42006;SDS011;27696;42.704;23.304;2023-12-04T08:10:30;7.72;;;5.90;;
42006;SDS011;27696;42.704;23.304;2023-12-04T08:12:56;6.93;;;5.07;;
42006;SDS011;27696;42.704;23.304;2023-12-04T08:15:22;8.35;;;5.80;;
42006;SDS011;27696;42.704;23.304;2023-12-04T08:17:47;10.15;;;6.53;;
42006;SDS011;27696;42.704;23.304;2023-12-04T08:20:13;7.97;;;5.00;;
42006;SDS011;27696;42.704;23.304;2023-12-04T08:22:39;9.63;;;6.35;;
42006;SDS011;27696;42.704;23.304;2023-12-04T08:25:06;8.82;;;5.88;;
42006;SDS011;27696;42.704;23.304;2023-12-04T08:27:32;8.52;;;5.68;;
42006;SDS011;27696;42.704;23.304;2023-12-04T08:29:58;8.38;;;5.72;;
42006;SDS011;27696;42.704;23.304;2023-12-04T08:32:23;8.18;;;5.40;;
42006;SDS011;27696;42.704;23.304;2023-12-04T08:34:51;7.03;;;5.15;;
42006;SDS011;27696;42.704;23.304;2023-12-04T08:37:17;8.02;;;5.85;;
42006;SDS011;27696;42.704;23.304;2023-12-04T08:39:43;10.38;;;6.63;;
42006;SDS011;27696;42.704;23.304;2023-12-04T08:42:09;9.82;;;6.57;;
42006;SDS011;27696;42.704;23.304;2023-12-04T08:44:34;9.40;;;6.65;;
42006;SDS011;27696;42.704;23.304;2023-12-04T08:47:00;10.73;;;5.25;;
42006;SDS011;27696;42.704;23.304;2023-12-04T08:49:26;8.25;;;5.70;;
42006;SDS011;27696;42.704;23.304;2023-12-04T08:51:51;9.48;;;5.70;;
42006;SDS011;27696;42.704;23.304;2023-12-04T08:54:17;20.50;;;10.60;;
42006;SDS011;27696;42.704;23.304;2023-12-04T08:56:43;13.13;;;8.50;;
42006;SDS011;27696;42.704;23.304;2023-12-04T08:59:09;12.25;;;5.57;;
42006;SDS011;27696;42.704;23.304;2023-12-04T09:01:35;19.38;;;12.38;;
42006;SDS011;27696;42.704;23.304;2023-12-04T09:04:01;11.13;;;6.22;;
42006;SDS011;27696;42.704;23.304;2023-12-04T09:06:27;9.45;;;7.40;;
42006;SDS011;27696;42.704;23.304;2023-12-04T09:08:52;8.02;;;5.85;;
42006;SDS011;27696;42.704;23.304;2023-12-04T09:11:18;11.45;;;5.97;;
42006;SDS011;27696;42.704;23.304;2023-12-04T09:13:43;12.30;;;6.03;;
42006;SDS011;27696;42.704;23.304;2023-12-04T09:16:09;8.65;;;6.03;;
42006;SDS011;27696;42.704;23.304;2023-12-04T09:18:35;6.63;;;5.20;;
42006;SDS011;27696;42.704;23.304;2023-12-04T09:21:00;22.75;;;6.35;;
42006;SDS011;27696;42.704;23.304;2023-12-04T09:23:26;5.75;;;4.50;;
42006;SDS011;27696;42.704;23.304;2023-12-04T09:25:51;6.63;;;5.30;;
42006;SDS011;27696;42.704;23.304;2023-12-04T09:28:17;7.13;;;5.20;;
42006;SDS011;27696;42.704;23.304;2023-12-04T09:30:42;8.88;;;4.90;;
42006;SDS011;27696;42.704;23.304;2023-12-04T09:33:08;6.53;;;5.43;;
42006;SDS011;27696;42.704;23.304;2023-12-04T09:35:33;9.23;;;4.97;;
42006;SDS011;27696;42.704;23.304;2023-12-04T09:37:59;6.30;;;4.80;;
42006;SDS011;27696;42.704;23.304;2023-12-04T09:40:25;7.07;;;4.70;;
42006;SDS011;27696;42.704;23.304;2023-12-04T09:42:51;5.40;;;4.30;;
42006;SDS011;27696;42.704;23.304;2023-12-04T09:45:17;7.05;;;4.97;;
42006;SDS011;27696;42.704;23.304;2023-12-04T09:47:44;6.35;;;4.70;;
42006;SDS011;27696;42.704;23.304;2023-12-04T09:50:09;7.00;;;5.00;;
42006;SDS011;27696;42.704;23.304;2023-12-04T09:52:35;9.38;;;5.18;;
42006;SDS011;27696;42.704;23.304;2023-12-04T09:55:01;7.70;;;5.47;;
42006;SDS011;27696;42.704;23.304;2023-12-04T09:57:26;7.00;;;5.30;;
42006;SDS011;27696;42.704;23.304;2023-12-04T09:59:53;5.95;;;4.75;;
42006;SDS011;27696;42.704;23.304;2023-12-04T10:02:19;6.60;;;4.95;;
42006;SDS011;27696;42.704;23.304;2023-12-04T10:04:46;7.57;;;5.68;;
42006;SDS011;27696;42.704;23.304;2023-12-04T10:07:12;9.88;;;5.40;;
42006;SDS011;27696;42.704;23.304;2023-12-04T10:09:37;6.85;;;5.50;;
42006;SDS011;27696;42.704;23.304;2023-12-04T10:12:03;11.32;;;6.05;;
42006;SDS011;27696;42.704;23.304;2023-12-04T10:14:28;8.13;;;5.72;;
42006;SDS011;27696;42.704;23.304;2023-12-04T10:16:55;18.52;;;7.05;;
42006;SDS011;27696;42.704;23.304;2023-12-04T10:19:21;13.07;;;6.63;;
42006;SDS011;27696;42.704;23.304;2023-12-04T10:21:57;9.90;;;6.88;;
42006;SDS011;27696;42.704;23.304;2023-12-04T10:27:05;7.15;;;5.63;;
42006;SDS011;27696;42.704;23.304;2023-12-04T10:29:46;8.40;;;6.25;;
42006;SDS011;27696;42.704;23.304;2023-12-04T10:32:13;10.65;;;6.55;;
42006;SDS011;27696;42.704;23.304;2023-12-04T10:34:44;10.43;;;6.00;;
42006;SDS011;27696;42.704;23.304;2023-12-04T10:37:10;10.90;;;7.10;;
42006;SDS011;27696;42.704;23.304;2023-12-04T10:39:45;9.70;;;7.03;;
42006;SDS011;27696;42.704;23.304;2023-12-04T10:42:12;9.27;;;6.50;;
42006;SDS011;27696;42.704;23.304;2023-12-04T10:44:37;9.75;;;6.72;;
42006;SDS011;27696;42.704;23.304;2023-12-04T10:47:05;9.77;;;6.18;;
42006;SDS011;27696;42.704;23.304;2023-12-04T10:49:32;10.15;;;6.43;;
42006;SDS011;27696;42.704;23.304;2023-12-04T10:51:58;8.68;;;5.88;;
42006;SDS011;27696;42.704;23.304;2023-12-04T10:54:24;9.15;;;6.07;;
42006;SDS011;27696;42.704;23.304;2023-12-04T10:56:51;9.20;;;6.55;;
42006;SDS011;27696;42.704;23.304;2023-12-04T10:59:18;10.35;;;7.05;;
42006;SDS011;27696;42.704;23.304;2023-12-04T11:01:47;9.35;;;6.85;;
42006;SDS011;27696;42.704;23.304;2023-12-04T11:04:16;12.48;;;8.50;;
42006;SDS011;27696;42.704;23.304;2023-12-04T11:06:49;13.02;;;8.10;;
42006;SDS011;27696;42.704;23.304;2023-12-04T11:09:20;9.35;;;7.40;;
42006;SDS011;27696;42.704;23.304;2023-12-04T11:11:46;12.02;;;8.43;;
42006;SDS011;27696;42.704;23.304;2023-12-04T11:14:14;13.38;;;7.72;;
42006;SDS011;27696;42.704;23.304;2023-12-04T11:16:47;8.95;;;7.10;;
42006;SDS011;27696;42.704;23.304;2023-12-04T11:21:51;9.52;;;7.60;;
42006;SDS011;27696;42.704;23.304;2023-12-04T11:24:18;12.52;;;7.53;;
42006;SDS011;27696;42.704;23.304;2023-12-04T11:26:43;11.48;;;7.65;;
42006;SDS011;27696;42.704;23.304;2023-12-04T11:29:09;11.27;;;7.22;;
42006;SDS011;27696;42.704;23.304;2023-12-04T11:31:37;9.38;;;7.25;;
42006;SDS011;27696;42.704;23.304;2023-12-04T11:34:02;13.90;;;7.60;;
42006;SDS011;27696;42.704;23.304;2023-12-04T11:36:28;11.35;;;7.47;;
42006;SDS011;27696;42.704;23.304;2023-12-04T11:38:54;8.65;;;6.80;;
42006;SDS011;27696;42.704;23.304;2023-12-04T11:41:22;11.13;;;7.55;;
42006;SDS011;27696;42.704;23.304;2023-12-04T11:43:48;10.52;;;6.82;;
42006;SDS011;27696;42.704;23.304;2023-12-04T11:46:18;13.05;;;7.20;;
42006;SDS011;27696;42.704;23.304;2023-12-04T11:49:35;13.25;;;8.60;;
42006;SDS011;27696;42.704;23.304;2023-12-04T11:51:51;10.55;;;7.57;;
42006;SDS011;27696;42.704;23.304;2023-12-04T11:54:18;16.17;;;11.00;;
42006;SDS011;27696;42.704;23.304;2023-12-04T11:59:37;10.38;;;8.00;;
42006;SDS011;27696;42.704;23.304;2023-12-04T12:02:03;11.30;;;7.70;;
42006;SDS011;27696;42.704;23.304;2023-12-04T12:04:33;16.08;;;8.82;;
42006;SDS011;27696;42.704;23.304;2023-12-04T12:07:00;13.00;;;9.30;;
42006;SDS011;27696;42.704;23.304;2023-12-04T12:09:30;11.23;;;8.27;;
42006;SDS011;27696;42.704;23.304;2023-12-04T12:11:56;15.02;;;8.30;;
42006;SDS011;27696;42.704;23.304;2023-12-04T12:14:25;11.95;;;8.52;;
42006;SDS011;27696;42.704;23.304;2023-12-04T12:16:50;12.05;;;8.50;;
42006;SDS011;27696;42.704;23.304;2023-12-04T12:19:15;13.52;;;9.70;;
42006;SDS011;27696;42.704;23.304;2023-12-04T12:21:43;12.32;;;9.40;;
42006;SDS011;27696;42.704;23.304;2023-12-04T12:24:11;12.85;;;8.95;;
42006;SDS011;27696;42.704;23.304;2023-12-04T12:26:37;16.30;;;9.23;;
42006;SDS011;27696;42.704;23.304;2023-12-04T12:29:02;14.35;;;9.27;;
42006;SDS011;27696;42.704;23.304;2023-12-04T12:31:28;13.43;;;9.02;;
42006;SDS011;27696;42.704;23.304;2023-12-04T12:33:55;14.85;;;8.98;;
42006;SDS011;27696;42.704;23.304;2023-12-04T12:36:20;12.75;;;9.57;;
42006;SDS011;27696;42.704;23.304;2023-12-04T12:38:47;18.02;;;10.40;;
42006;SDS011;27696;42.704;23.304;2023-12-04T12:41:18;19.77;;;12.75;;
42006;SDS011;27696;42.704;23.304;2023-12-04T12:43:43;16.92;;;11.85;;
42006;SDS011;27696;42.704;23.304;2023-12-04T12:46:09;20.70;;;11.82;;
42006;SDS011;27696;42.704;23.304;2023-12-04T12:48:35;17.95;;;11.65;;
42006;SDS011;27696;42.704;23.304;2023-12-04T12:51:04;22.40;;;14.80;;
42006;SDS011;27696;42.704;23.304;2023-12-04T12:53:33;15.57;;;11.32;;
42006;SDS011;27696;42.704;23.304;2023-12-04T12:56:03;15.38;;;11.80;;
42006;SDS011;27696;42.704;23.304;2023-12-04T12:58:29;16.40;;;11.88;;
42006;SDS011;27696;42.704;23.304;2023-12-04T13:00:54;23.27;;;12.05;;
42006;SDS011;27696;42.704;23.304;2023-12-04T13:03:20;14.50;;;11.52;;
42006;SDS011;27696;42.704;23.304;2023-12-04T13:05:47;17.77;;;11.93;;
42006;SDS011;27696;42.704;23.304;2023-12-04T13:08:13;18.85;;;13.93;;
42006;SDS011;27696;42.704;23.304;2023-12-04T13:10:40;23.85;;;13.27;;
42006;SDS011;27696;42.704;23.304;2023-12-04T13:13:12;19.38;;;13.70;;
42006;SDS011;27696;42.704;23.304;2023-12-04T13:15:38;18.15;;;12.82;;
42006;SDS011;27696;42.704;23.304;2023-12-04T13:18:04;17.60;;;12.77;;
42006;SDS011;27696;42.704;23.304;2023-12-04T13:20:29;20.55;;;12.88;;
42006;SDS011;27696;42.704;23.304;2023-12-04T13:22:55;18.60;;;13.75;;
42006;SDS011;27696;42.704;23.304;2023-12-04T13:25:21;23.67;;;13.15;;
42006;SDS011;27696;42.704;23.304;2023-12-04T13:27:47;17.77;;;13.40;;
42006;SDS011;27696;42.704;23.304;2023-12-04T13:30:13;21.40;;;15.05;;
42006;SDS011;27696;42.704;23.304;2023-12-04T13:32:38;22.42;;;13.98;;
42006;SDS011;27696;42.704;23.304;2023-12-04T13:35:04;20.15;;;14.27;;
42006;SDS011;27696;42.704;23.304;2023-12-04T13:37:30;23.00;;;13.52;;
42006;SDS011;27696;42.704;23.304;2023-12-04T13:39:56;18.88;;;13.88;;
42006;SDS011;27696;42.704;23.304;2023-12-04T13:42:32;16.77;;;13.30;;
42006;SDS011;27696;42.704;23.304;2023-12-04T13:45:16;24.45;;;14.52;;
42006;SDS011;27696;42.704;23.304;2023-12-04T13:47:42;18.65;;;12.98;;
42006;SDS011;27696;42.704;23.304;2023-12-04T13:50:09;20.88;;;13.98;;
42006;SDS011;27696;42.704;23.304;2023-12-04T13:52:34;17.85;;;12.73;;
42006;SDS011;27696;42.704;23.304;2023-12-04T13:55:00;19.00;;;13.40;;
42006;SDS011;27696;42.704;23.304;2023-12-04T13:57:27;18.05;;;13.40;;
42006;SDS011;27696;42.704;23.304;2023-12-04T14:00:02;17.80;;;13.10;;
42006;SDS011;27696;42.704;23.304;2023-12-04T14:02:29;20.40;;;13.02;;
42006;SDS011;27696;42.704;23.304;2023-12-04T14:04:54;19.92;;;13.07;;
42006;SDS011;27696;42.704;23.304;2023-12-04T14:07:20;16.02;;;11.82;;
42006;SDS011;27696;42.704;23.304;2023-12-04T14:09:45;22.17;;;14.32;;
42006;SDS011;27696;42.704;23.304;2023-12-04T14:12:12;23.40;;;13.98;;
42006;SDS011;27696;42.704;23.304;2023-12-04T14:14:37;19.08;;;14.27;;
42006;SDS011;27696;42.704;23.304;2023-12-04T14:17:03;22.88;;;14.48;;
42006;SDS011;27696;42.704;23.304;2023-12-04T14:19:29;19.85;;;13.02;;
42006;SDS011;27696;42.704;23.304;2023-12-04T14:21:55;19.45;;;12.95;;
42006;SDS011;27696;42.704;23.304;2023-12-04T14:24:21;19.48;;;13.13;;
42006;SDS011;27696;42.704;23.304;2023-12-04T14:26:47;26.98;;;14.00;;